createdAt,value
2018-11-22T00:00:23.736Z,975.70
2018-11-22T00:01:23.729Z,975.69
2018-11-22T00:02:23.725Z,975.69
2018-11-22T00:03:23.715Z,975.68
2018-11-22T00:04:23.749Z,975.65
2018-11-22T00:05:23.702Z,975.66
2018-11-22T00:06:23.697Z,975.68
2018-11-22T00:07:23.689Z,975.67
2018-11-22T00:08:23.679Z,975.71
2018-11-22T00:09:23.706Z,975.70
2018-11-22T00:10:23.668Z,975.67
2018-11-22T00:11:23.666Z,975.68
2018-11-22T00:12:23.649Z,975.67
2018-11-22T00:13:23.639Z,975.69
2018-11-22T00:14:23.678Z,975.71
2018-11-22T00:15:23.632Z,975.69
2018-11-22T00:16:23.624Z,975.74
2018-11-22T00:17:23.624Z,975.65
2018-11-22T00:18:23.608Z,975.74
2018-11-22T00:19:23.640Z,975.73
2018-11-22T00:20:23.596Z,975.72
2018-11-22T00:21:23.592Z,975.69
2018-11-22T00:22:23.584Z,975.70
2018-11-22T00:23:23.576Z,975.70
2018-11-22T00:24:23.604Z,975.70
2018-11-22T00:25:23.561Z,975.71
2018-11-22T00:26:23.555Z,975.72
2018-11-22T00:27:23.547Z,975.70
2018-11-22T00:28:23.541Z,975.76
2018-11-22T00:29:23.568Z,975.75
2018-11-22T00:30:23.523Z,975.76
2018-11-22T00:31:23.518Z,975.74
2018-11-22T00:32:23.511Z,975.72
2018-11-22T00:33:23.500Z,975.72
2018-11-22T00:34:23.535Z,975.71
2018-11-22T00:35:23.492Z,975.73
2018-11-22T00:36:23.483Z,975.73
2018-11-22T00:37:23.475Z,975.71
2018-11-22T00:38:23.470Z,975.74
2018-11-22T00:39:23.498Z,975.76
2018-11-22T00:40:23.454Z,975.78
2018-11-22T00:41:23.444Z,975.77
2018-11-22T00:42:23.441Z,975.72
2018-11-22T00:43:23.435Z,975.75
2018-11-22T00:44:23.458Z,975.77
2018-11-22T00:45:23.419Z,975.76
2018-11-22T00:46:23.417Z,975.79
2018-11-22T00:47:23.406Z,975.81
2018-11-22T00:48:23.397Z,975.79
2018-11-22T00:49:23.429Z,975.81
2018-11-22T00:50:23.385Z,975.82
2018-11-22T00:51:23.375Z,975.79
2018-11-22T00:52:23.369Z,975.84
2018-11-22T00:53:23.365Z,975.87
2018-11-22T00:54:23.392Z,975.88
2018-11-22T00:55:23.355Z,975.86
2018-11-22T00:56:23.338Z,975.92
2018-11-22T00:57:23.333Z,975.97
2018-11-22T00:58:23.365Z,975.99
2018-11-22T00:59:23.320Z,975.95
2018-11-22T01:00:23.312Z,975.92
2018-11-22T01:01:23.306Z,975.91
2018-11-22T01:02:23.300Z,975.92
2018-11-22T01:03:23.332Z,975.91
2018-11-22T01:04:23.283Z,975.93
2018-11-22T01:05:23.280Z,975.96
2018-11-22T01:06:23.274Z,975.94
2018-11-22T01:07:23.271Z,975.95
2018-11-22T01:08:23.293Z,975.90
2018-11-22T01:09:23.288Z,975.90
2018-11-22T01:10:23.243Z,975.95
2018-11-22T01:11:23.231Z,975.94
2018-11-22T01:12:23.230Z,975.96
2018-11-22T01:13:23.223Z,975.97
2018-11-22T01:14:23.252Z,975.96
2018-11-22T01:15:23.208Z,975.99
2018-11-22T01:16:23.200Z,975.97
2018-11-22T01:17:23.195Z,975.98
2018-11-22T01:18:23.220Z,975.96
2018-11-22T01:19:23.179Z,975.98
2018-11-22T01:20:23.172Z,975.95
2018-11-22T01:21:23.168Z,975.95
2018-11-22T01:22:23.159Z,975.92
2018-11-22T01:23:23.187Z,975.91
2018-11-22T01:24:23.147Z,975.93
2018-11-22T01:25:23.135Z,975.90
2018-11-22T01:26:23.133Z,975.94
2018-11-22T01:27:23.126Z,975.92
2018-11-22T01:28:23.150Z,975.89
2018-11-22T01:29:23.107Z,975.88
2018-11-22T01:30:23.102Z,975.88
2018-11-22T01:31:23.098Z,975.88
2018-11-22T01:32:23.094Z,975.86
2018-11-22T01:33:23.120Z,975.86
2018-11-22T01:34:23.074Z,975.86
2018-11-22T01:35:23.070Z,975.81
2018-11-22T01:36:23.062Z,975.83
2018-11-22T01:37:23.056Z,975.82
2018-11-22T01:38:23.082Z,975.82
2018-11-22T01:39:23.042Z,975.79
2018-11-22T01:40:23.034Z,975.78
2018-11-22T01:41:23.028Z,975.81
2018-11-22T01:42:23.022Z,975.80
2018-11-22T01:43:23.050Z,975.80
2018-11-22T01:44:23.002Z,975.80
2018-11-22T01:45:23.006Z,975.78
2018-11-22T01:46:22.994Z,975.76
2018-11-22T01:47:22.986Z,975.74
2018-11-22T01:48:23.014Z,975.75
2018-11-22T01:49:22.969Z,975.76
2018-11-22T01:50:22.961Z,975.80
2018-11-22T01:51:22.961Z,975.76
2018-11-22T01:52:22.992Z,975.76
2018-11-22T01:53:22.946Z,975.77
2018-11-22T01:54:22.937Z,975.74
2018-11-22T01:55:22.937Z,975.74
2018-11-22T01:56:22.917Z,975.78
2018-11-22T01:57:22.954Z,975.74
2018-11-22T01:58:22.909Z,975.73
2018-11-22T01:59:22.976Z,975.74
2018-11-22T02:00:22.899Z,975.76
2018-11-22T02:01:22.889Z,975.79
2018-11-22T02:02:22.918Z,975.79
2018-11-22T02:03:22.872Z,975.78
2018-11-22T02:04:22.866Z,975.76
2018-11-22T02:05:22.860Z,975.78
2018-11-22T02:06:22.855Z,975.76
2018-11-22T02:07:22.880Z,975.79
2018-11-22T02:08:22.845Z,975.83
2018-11-22T02:09:22.831Z,975.82
2018-11-22T02:10:22.861Z,975.77
2018-11-22T02:11:22.819Z,975.80
2018-11-22T02:12:22.811Z,975.81
2018-11-22T02:13:22.840Z,975.79
2018-11-22T02:14:22.799Z,975.77
2018-11-22T02:15:22.795Z,975.79
2018-11-22T02:16:22.780Z,975.79
2018-11-22T02:17:22.816Z,975.77
2018-11-22T02:18:22.771Z,975.75
2018-11-22T02:19:22.768Z,975.74
2018-11-22T02:20:22.755Z,975.79
2018-11-22T02:21:22.751Z,975.79
2018-11-22T02:22:22.779Z,975.76
2018-11-22T02:23:22.735Z,975.72
2018-11-22T02:24:22.732Z,975.74
2018-11-22T02:25:22.714Z,975.72
2018-11-22T02:26:22.723Z,975.76
2018-11-22T02:27:22.753Z,975.71
2018-11-22T02:28:22.698Z,975.75
2018-11-22T02:29:22.695Z,975.75
2018-11-22T02:30:22.725Z,975.74
2018-11-22T02:31:22.684Z,975.75
2018-11-22T02:32:22.679Z,975.76
2018-11-22T02:33:22.700Z,975.74
2018-11-22T02:34:22.658Z,975.76
2018-11-22T02:35:22.651Z,975.72
2018-11-22T02:36:22.643Z,975.72
2018-11-22T02:37:22.642Z,975.71
2018-11-22T02:38:22.666Z,975.69
2018-11-22T02:39:22.630Z,975.73
2018-11-22T02:40:22.618Z,975.69
2018-11-22T02:41:22.636Z,975.72
2018-11-22T02:42:22.598Z,975.68
2018-11-22T02:43:22.631Z,975.69
2018-11-22T02:44:22.593Z,975.75
2018-11-22T02:45:22.581Z,975.69
2018-11-22T02:46:22.574Z,975.72
2018-11-22T02:47:22.569Z,975.72
2018-11-22T02:48:22.597Z,975.72
2018-11-22T02:49:22.557Z,975.74
2018-11-22T02:50:22.549Z,975.72
2018-11-22T02:51:22.541Z,975.74
2018-11-22T02:52:22.535Z,975.74
2018-11-22T02:53:22.565Z,975.72
2018-11-22T02:54:22.522Z,975.71
2018-11-22T02:55:22.517Z,975.76
2018-11-22T02:56:22.501Z,975.74
2018-11-22T02:57:22.507Z,975.75
2018-11-22T02:58:22.533Z,975.77
2018-11-22T02:59:22.484Z,975.81
2018-11-22T03:00:22.481Z,975.76
2018-11-22T03:01:22.487Z,975.77
2018-11-22T03:02:22.480Z,975.80
2018-11-22T03:03:22.501Z,975.76
2018-11-22T03:04:22.465Z,975.78
2018-11-22T03:05:22.456Z,975.79
2018-11-22T03:06:22.448Z,975.78
2018-11-22T03:07:22.449Z,975.79
2018-11-22T03:08:22.462Z,975.83
2018-11-22T03:09:22.427Z,975.83
2018-11-22T03:10:22.424Z,975.83
2018-11-22T03:11:22.449Z,975.83
2018-11-22T03:12:22.405Z,975.88
2018-11-22T03:13:22.411Z,975.88
2018-11-22T03:14:22.425Z,975.90
2018-11-22T03:15:22.388Z,975.90
2018-11-22T03:16:22.380Z,975.89
2018-11-22T03:17:22.377Z,975.88
2018-11-22T03:18:22.369Z,975.88
2018-11-22T03:19:22.388Z,975.94
2018-11-22T03:20:22.358Z,975.91
2018-11-22T03:21:22.352Z,975.90
2018-11-22T03:22:22.339Z,975.93
2018-11-22T03:23:22.334Z,975.94
2018-11-22T03:24:22.491Z,975.94
2018-11-22T03:25:22.319Z,975.97
2018-11-22T03:26:22.314Z,975.98
2018-11-22T03:27:22.302Z,975.98
2018-11-22T03:28:22.300Z,975.99
2018-11-22T03:29:22.319Z,975.97
2018-11-22T03:30:22.284Z,975.92
2018-11-22T03:31:22.279Z,975.97
2018-11-22T03:32:22.274Z,975.94
2018-11-22T03:33:22.262Z,975.96
2018-11-22T03:34:22.289Z,975.95
2018-11-22T03:35:22.259Z,975.96
2018-11-22T03:36:22.273Z,975.99
2018-11-22T03:37:22.230Z,975.98
2018-11-22T03:38:22.230Z,975.99
2018-11-22T03:39:22.220Z,975.96
2018-11-22T03:40:22.242Z,975.94
2018-11-22T03:41:22.210Z,975.93
2018-11-22T03:42:22.202Z,975.94
2018-11-22T03:43:22.193Z,975.91
2018-11-22T03:44:22.186Z,975.95
2018-11-22T03:45:22.206Z,975.98
2018-11-22T03:46:22.173Z,975.94
2018-11-22T03:47:22.165Z,975.99
2018-11-22T03:48:22.158Z,975.97
2018-11-22T03:49:22.154Z,975.97
2018-11-22T03:50:22.177Z,975.98
2018-11-22T03:51:22.138Z,976.00
2018-11-22T03:52:22.133Z,975.97
2018-11-22T03:53:22.130Z,975.95
2018-11-22T03:54:22.118Z,976.01
2018-11-22T03:55:22.140Z,975.95
2018-11-22T03:56:22.106Z,976.02
2018-11-22T03:57:22.105Z,975.97
2018-11-22T03:58:22.089Z,975.98
2018-11-22T03:59:22.077Z,975.98
2018-11-22T04:00:22.105Z,975.99
2018-11-22T04:01:22.068Z,975.95
2018-11-22T04:02:22.057Z,975.97
2018-11-22T04:03:22.062Z,975.98
2018-11-22T04:04:22.048Z,975.95
2018-11-22T04:05:22.067Z,975.94
2018-11-22T04:06:22.032Z,975.94
2018-11-22T04:07:22.028Z,975.93
2018-11-22T04:08:22.021Z,975.91
2018-11-22T04:09:22.012Z,975.94
2018-11-22T04:10:22.032Z,975.91
2018-11-22T04:11:22.002Z,975.92
2018-11-22T04:12:21.992Z,975.93
2018-11-22T04:13:21.990Z,975.97
2018-11-22T04:14:21.976Z,975.97
2018-11-22T04:15:22.003Z,975.97
2018-11-22T04:16:21.964Z,975.95
2018-11-22T04:17:21.988Z,975.99
2018-11-22T04:18:21.951Z,975.98
2018-11-22T04:19:21.942Z,975.99
2018-11-22T04:20:21.940Z,976.00
2018-11-22T04:21:21.967Z,975.96
2018-11-22T04:22:21.927Z,975.99
2018-11-22T04:23:21.919Z,975.98
2018-11-22T04:24:21.912Z,975.97
2018-11-22T04:25:21.907Z,975.97
2018-11-22T04:26:24.101Z,975.97
2018-11-22T04:27:21.895Z,975.98
2018-11-22T04:28:21.887Z,975.99
2018-11-22T04:29:21.871Z,975.98
2018-11-22T04:30:21.873Z,975.97
2018-11-22T04:31:21.891Z,975.97
2018-11-22T04:32:21.854Z,976.00
2018-11-22T04:33:21.844Z,975.99
2018-11-22T04:34:21.843Z,975.99
2018-11-22T04:35:21.831Z,975.96
2018-11-22T04:36:21.860Z,975.98
2018-11-22T04:37:21.852Z,976.00
2018-11-22T04:38:21.815Z,975.97
2018-11-22T04:39:21.810Z,975.98
2018-11-22T04:40:21.802Z,975.95
2018-11-22T04:41:21.822Z,975.95
2018-11-22T04:42:21.790Z,975.95
2018-11-22T04:43:21.786Z,975.91
2018-11-22T04:44:21.774Z,975.97
2018-11-22T04:45:21.773Z,975.93
2018-11-22T04:46:21.789Z,975.96
2018-11-22T04:47:21.754Z,975.97
2018-11-22T04:48:21.746Z,975.93
2018-11-22T04:49:21.741Z,975.90
2018-11-22T04:50:21.734Z,975.90
2018-11-22T04:51:21.754Z,975.89
2018-11-22T04:52:21.718Z,975.91
2018-11-22T04:53:21.715Z,975.88
2018-11-22T04:54:21.707Z,975.90
2018-11-22T04:55:21.701Z,975.89
2018-11-22T04:56:21.721Z,975.96
2018-11-22T04:57:21.685Z,975.96
2018-11-22T04:58:21.690Z,975.99
2018-11-22T04:59:21.675Z,975.94
2018-11-22T05:00:21.675Z,976.00
2018-11-22T05:01:21.694Z,975.94
2018-11-22T05:02:21.682Z,975.96
2018-11-22T05:03:21.647Z,975.91
2018-11-22T05:04:22.318Z,975.95
2018-11-22T05:05:21.628Z,975.90
2018-11-22T05:06:21.625Z,975.91
2018-11-22T05:07:21.648Z,975.92
2018-11-22T05:08:21.611Z,975.89
2018-11-22T05:09:21.624Z,975.92
2018-11-22T05:10:21.604Z,975.89
2018-11-22T05:11:21.594Z,975.90
2018-11-22T05:12:21.612Z,975.89
2018-11-22T05:13:21.579Z,975.88
2018-11-22T05:14:21.576Z,975.87
2018-11-22T05:15:21.566Z,975.89
2018-11-22T05:16:21.552Z,975.86
2018-11-22T05:17:21.581Z,975.89
2018-11-22T05:18:21.544Z,975.89
2018-11-22T05:19:21.542Z,975.90
2018-11-22T05:20:21.532Z,975.88
2018-11-22T05:21:21.527Z,975.89
2018-11-22T05:22:21.547Z,975.85
2018-11-22T05:23:21.511Z,975.85
2018-11-22T05:24:21.501Z,975.87
2018-11-22T05:25:21.497Z,975.86
2018-11-22T05:26:21.492Z,975.87
2018-11-22T05:27:21.517Z,975.86
2018-11-22T05:28:21.503Z,975.87
2018-11-22T05:29:21.471Z,975.86
2018-11-22T05:30:21.467Z,975.89
2018-11-22T05:31:21.458Z,975.91
2018-11-22T05:32:21.448Z,975.89
2018-11-22T05:33:21.479Z,975.89
2018-11-22T05:34:21.438Z,975.91
2018-11-22T05:35:21.433Z,975.90
2018-11-22T05:36:21.437Z,975.91
2018-11-22T05:37:21.435Z,975.88
2018-11-22T05:38:21.439Z,975.92
2018-11-22T05:39:21.410Z,975.95
2018-11-22T05:40:21.398Z,975.93
2018-11-22T05:41:21.393Z,975.92
2018-11-22T05:42:21.383Z,975.93
2018-11-22T05:43:21.406Z,975.92
2018-11-22T05:44:21.486Z,975.96
2018-11-22T05:45:21.362Z,975.95
2018-11-22T05:46:21.357Z,975.93
2018-11-22T05:47:21.353Z,975.95
2018-11-22T05:48:21.369Z,975.92
2018-11-22T05:49:21.337Z,975.88
2018-11-22T05:50:21.330Z,975.93
2018-11-22T05:51:21.325Z,975.92
2018-11-22T05:52:21.318Z,975.92
2018-11-22T05:53:21.341Z,975.95
2018-11-22T05:54:21.306Z,975.97
2018-11-22T05:55:21.300Z,975.96
2018-11-22T05:56:21.291Z,975.93
2018-11-22T05:57:21.285Z,975.93
2018-11-22T05:58:21.304Z,975.92
2018-11-22T05:59:21.267Z,975.89
2018-11-22T06:00:21.265Z,975.85
2018-11-22T06:01:21.262Z,975.88
2018-11-22T06:02:21.253Z,975.87
2018-11-22T06:03:21.314Z,975.83
2018-11-22T06:04:21.239Z,975.85
2018-11-22T06:05:21.232Z,975.85
2018-11-22T06:06:21.230Z,975.92
2018-11-22T06:07:21.217Z,975.91
2018-11-22T06:08:21.217Z,975.96
2018-11-22T06:09:21.234Z,975.99
2018-11-22T06:10:21.198Z,975.97
2018-11-22T06:11:21.191Z,975.98
2018-11-22T06:12:21.190Z,975.98
2018-11-22T06:13:21.180Z,975.99
2018-11-22T06:14:21.200Z,976.00
2018-11-22T06:15:21.160Z,975.95
2018-11-22T06:16:21.163Z,975.96
2018-11-22T06:17:21.152Z,975.95
2018-11-22T06:18:21.150Z,975.96
2018-11-22T06:19:21.212Z,975.94
2018-11-22T06:20:21.133Z,975.98
2018-11-22T06:21:21.119Z,975.97
2018-11-22T06:22:21.120Z,975.96
2018-11-22T06:23:21.107Z,976.00
2018-11-22T06:24:21.310Z,976.01
2018-11-22T06:25:21.102Z,976.02
2018-11-22T06:26:21.091Z,976.05
2018-11-22T06:27:21.087Z,976.04
2018-11-22T06:28:21.078Z,976.04
2018-11-22T06:29:21.095Z,976.05
2018-11-22T06:30:21.097Z,976.04
2018-11-22T06:31:21.062Z,976.07
2018-11-22T06:32:21.055Z,976.09
2018-11-22T06:33:21.047Z,976.11
2018-11-22T06:34:21.047Z,976.13
2018-11-22T06:35:21.063Z,976.13
2018-11-22T06:36:21.814Z,976.16
2018-11-22T06:37:21.026Z,976.15
2018-11-22T06:38:21.003Z,976.17
2018-11-22T06:39:21.007Z,976.21
2018-11-22T06:40:21.031Z,976.20
2018-11-22T06:41:20.991Z,976.19
2018-11-22T06:42:20.991Z,976.19
2018-11-22T06:43:21.005Z,976.22
2018-11-22T06:44:20.975Z,976.25
2018-11-22T06:45:21.000Z,976.26
2018-11-22T06:46:20.962Z,976.29
2018-11-22T06:47:20.953Z,976.27
2018-11-22T06:48:20.945Z,976.28
2018-11-22T06:49:20.938Z,976.28
2018-11-22T06:50:20.968Z,976.30
2018-11-22T06:51:20.925Z,976.30
2018-11-22T06:52:20.918Z,976.33
2018-11-22T06:53:20.912Z,976.33
2018-11-22T06:54:20.910Z,976.34
2018-11-22T06:55:20.926Z,976.35
2018-11-22T06:56:21.083Z,976.35
2018-11-22T06:57:20.889Z,976.34
2018-11-22T06:58:20.880Z,976.33
2018-11-22T06:59:20.873Z,976.36
2018-11-22T07:00:20.896Z,976.37
2018-11-22T07:01:20.864Z,976.40
2018-11-22T07:02:20.857Z,976.37
2018-11-22T07:03:20.849Z,976.36
2018-11-22T07:04:20.839Z,976.37
2018-11-22T07:05:20.868Z,976.37
2018-11-22T07:06:20.828Z,976.37
2018-11-22T07:07:20.823Z,976.38
2018-11-22T07:08:20.819Z,976.38
2018-11-22T07:09:20.808Z,976.40
2018-11-22T07:10:20.831Z,976.40
2018-11-22T07:11:20.796Z,976.43
2018-11-22T07:12:20.790Z,976.47
2018-11-22T07:13:20.784Z,976.44
2018-11-22T07:14:20.775Z,976.45
2018-11-22T07:15:20.797Z,976.44
2018-11-22T07:16:20.785Z,976.40
2018-11-22T07:17:20.756Z,976.40
2018-11-22T07:18:20.753Z,976.41
2018-11-22T07:19:20.743Z,976.40
2018-11-22T07:20:20.739Z,976.44
2018-11-22T07:21:20.759Z,976.43
2018-11-22T07:22:20.723Z,976.44
2018-11-22T07:23:20.720Z,976.47
2018-11-22T07:24:20.714Z,976.46
2018-11-22T07:25:20.707Z,976.47
2018-11-22T07:26:20.726Z,976.45
2018-11-22T07:27:20.691Z,976.43
2018-11-22T07:28:20.691Z,976.42
2018-11-22T07:29:20.681Z,976.43
2018-11-22T07:30:20.678Z,976.44
2018-11-22T07:31:20.694Z,976.45
2018-11-22T07:32:20.663Z,976.44
2018-11-22T07:33:20.655Z,976.44
2018-11-22T07:34:20.649Z,976.43
2018-11-22T07:35:20.642Z,976.46
2018-11-22T07:36:20.662Z,976.47
2018-11-22T07:37:20.626Z,976.49
2018-11-22T07:38:20.623Z,976.48
2018-11-22T07:39:20.614Z,976.47
2018-11-22T07:40:20.609Z,976.44
2018-11-22T07:41:20.626Z,976.50
2018-11-22T07:42:20.598Z,976.51
2018-11-22T07:43:20.589Z,976.52
2018-11-22T07:44:20.586Z,976.54
2018-11-22T07:45:20.603Z,976.54
2018-11-22T07:46:20.574Z,976.55
2018-11-22T07:47:20.593Z,976.53
2018-11-22T07:48:20.556Z,976.51
2018-11-22T07:49:20.553Z,976.50
2018-11-22T07:50:20.545Z,976.48
2018-11-22T07:51:20.538Z,976.52
2018-11-22T07:52:20.564Z,976.55
2018-11-22T07:53:20.528Z,976.54
2018-11-22T07:54:20.522Z,976.49
2018-11-22T07:55:20.513Z,976.52
2018-11-22T07:56:20.541Z,976.50
2018-11-22T07:57:20.528Z,976.54
2018-11-22T07:58:20.492Z,976.53
2018-11-22T07:59:20.489Z,976.53
2018-11-22T08:00:20.497Z,976.50
2018-11-22T08:01:20.471Z,976.52
2018-11-22T08:02:20.501Z,976.52
2018-11-22T08:03:20.462Z,976.53
2018-11-22T08:04:20.456Z,976.52
2018-11-22T08:05:20.452Z,976.51
2018-11-22T08:06:20.445Z,976.53
2018-11-22T08:07:20.466Z,976.52
2018-11-22T08:08:20.432Z,976.52
2018-11-22T08:09:20.428Z,976.53
2018-11-22T08:10:20.419Z,976.54
2018-11-22T08:11:20.407Z,976.50
2018-11-22T08:12:25.883Z,976.53
2018-11-22T08:13:20.397Z,976.54
2018-11-22T08:14:20.391Z,976.58
2018-11-22T08:15:20.384Z,976.58
2018-11-22T08:16:20.380Z,976.57
2018-11-22T08:17:20.403Z,976.60
2018-11-22T08:18:20.367Z,976.58
2018-11-22T08:19:20.364Z,976.56
2018-11-22T08:20:20.355Z,976.52
2018-11-22T08:21:20.375Z,976.57
2018-11-22T08:22:20.346Z,976.57
2018-11-22T08:23:20.364Z,976.57
2018-11-22T08:24:20.333Z,976.55
2018-11-22T08:25:20.323Z,976.52
2018-11-22T08:26:20.325Z,976.53
2018-11-22T08:27:20.311Z,976.51
2018-11-22T08:28:20.345Z,976.50
2018-11-22T08:29:20.299Z,976.47
2018-11-22T08:30:20.295Z,976.51
2018-11-22T08:31:20.289Z,976.49
2018-11-22T08:32:20.284Z,976.54
2018-11-22T08:33:20.302Z,976.51
2018-11-22T08:34:20.273Z,976.52
2018-11-22T08:35:20.261Z,976.48
2018-11-22T08:36:20.261Z,976.47
2018-11-22T08:37:20.250Z,976.49
2018-11-22T08:38:20.270Z,976.52
2018-11-22T08:39:20.237Z,976.48
2018-11-22T08:40:20.231Z,976.45
2018-11-22T08:41:20.229Z,976.46
2018-11-22T08:42:20.222Z,976.41
2018-11-22T08:43:20.241Z,976.43
2018-11-22T08:44:20.205Z,976.41
2018-11-22T08:45:20.201Z,976.41
2018-11-22T08:46:20.193Z,976.46
2018-11-22T08:47:20.190Z,976.44
2018-11-22T08:48:20.211Z,976.41
2018-11-22T08:49:20.178Z,976.35
2018-11-22T08:50:20.169Z,976.36
2018-11-22T08:51:20.193Z,976.37
2018-11-22T08:52:20.158Z,976.36
2018-11-22T08:53:20.153Z,976.41
2018-11-22T08:54:20.182Z,976.38
2018-11-22T08:55:20.141Z,976.39
2018-11-22T08:56:20.130Z,976.41
2018-11-22T08:57:20.129Z,976.37
2018-11-22T08:58:20.122Z,976.38
2018-11-22T08:59:20.146Z,976.36
2018-11-22T09:00:20.112Z,976.35
2018-11-22T09:01:20.105Z,976.34
2018-11-22T09:02:20.100Z,976.34
2018-11-22T09:03:20.096Z,976.38
2018-11-22T09:04:21.175Z,976.38
2018-11-22T09:05:20.084Z,976.39
2018-11-22T09:06:20.075Z,976.37
2018-11-22T09:07:20.075Z,976.33
2018-11-22T09:08:20.065Z,976.34
2018-11-22T09:09:20.059Z,976.34
2018-11-22T09:10:20.079Z,976.32
2018-11-22T09:11:20.047Z,976.31
2018-11-22T09:12:20.035Z,976.33
2018-11-22T09:13:20.031Z,976.32
2018-11-22T09:14:20.023Z,976.32
2018-11-22T09:15:20.047Z,976.36
2018-11-22T09:16:20.006Z,976.33
2018-11-22T09:17:20.011Z,976.35
2018-11-22T09:18:20.009Z,976.35
2018-11-22T09:19:19.995Z,976.38
2018-11-22T09:20:20.019Z,976.38
2018-11-22T09:21:19.982Z,976.39
2018-11-22T09:22:19.980Z,976.37
2018-11-22T09:23:19.968Z,976.38
2018-11-22T09:24:24.096Z,976.36
2018-11-22T09:25:19.991Z,976.40
2018-11-22T09:26:19.951Z,976.36
2018-11-22T09:27:19.950Z,976.38
2018-11-22T09:28:19.950Z,976.38
2018-11-22T09:29:19.963Z,976.37
2018-11-22T09:30:19.934Z,976.42
2018-11-22T09:31:19.926Z,976.44
2018-11-22T09:32:19.950Z,976.41
2018-11-22T09:33:19.926Z,976.42
2018-11-22T09:34:19.909Z,976.39
2018-11-22T09:35:19.975Z,976.43
2018-11-22T09:36:19.892Z,976.44
2018-11-22T09:37:19.897Z,976.40
2018-11-22T09:38:19.890Z,976.41
2018-11-22T09:39:19.876Z,976.44
2018-11-22T09:40:19.904Z,976.44
2018-11-22T09:41:19.872Z,976.42
2018-11-22T09:42:19.913Z,976.46
2018-11-22T09:43:19.860Z,976.43
2018-11-22T09:44:19.856Z,976.45
2018-11-22T09:45:19.874Z,976.45
2018-11-22T09:46:19.843Z,976.41
2018-11-22T09:47:19.839Z,976.42
2018-11-22T09:48:19.836Z,976.44
2018-11-22T09:49:19.835Z,976.44
2018-11-22T09:50:19.857Z,976.49
2018-11-22T09:51:19.832Z,976.50
2018-11-22T09:52:19.812Z,976.60
2018-11-22T09:53:19.812Z,976.64
2018-11-22T09:54:19.803Z,976.68
2018-11-22T09:55:19.827Z,976.68
2018-11-22T09:56:19.794Z,976.76
2018-11-22T09:57:19.801Z,976.76
2018-11-22T09:58:19.788Z,976.77
2018-11-22T09:59:19.836Z,976.75
2018-11-22T10:00:19.799Z,976.77
2018-11-22T10:01:19.771Z,976.70
2018-11-22T10:02:19.767Z,976.65
2018-11-22T10:03:19.767Z,976.63
2018-11-22T10:04:19.760Z,976.64
2018-11-22T10:05:19.871Z,976.56
2018-11-22T10:06:19.751Z,976.56
2018-11-22T10:07:19.746Z,976.56
2018-11-22T10:08:19.759Z,976.59
2018-11-22T10:09:19.755Z,976.63
2018-11-22T10:10:19.762Z,976.68
2018-11-22T10:11:19.729Z,976.72
2018-11-22T10:12:19.746Z,976.77
2018-11-22T10:13:19.718Z,976.79
2018-11-22T10:14:19.722Z,976.88
2018-11-22T10:15:19.742Z,976.92
2018-11-22T10:16:19.710Z,976.97
2018-11-22T10:17:19.701Z,977.00
2018-11-22T10:18:19.702Z,977.02
2018-11-22T10:19:19.704Z,977.00
2018-11-22T10:20:19.726Z,977.01
2018-11-22T10:21:19.692Z,977.03
2018-11-22T10:22:19.716Z,976.95
2018-11-22T10:23:19.682Z,976.86
2018-11-22T10:24:19.731Z,976.85
2018-11-22T10:25:19.697Z,976.83
2018-11-22T10:26:19.672Z,976.87
2018-11-22T10:27:19.665Z,976.87
2018-11-22T10:28:19.664Z,976.87
2018-11-22T10:29:19.690Z,976.99
2018-11-22T10:30:19.710Z,976.89
2018-11-22T10:31:19.712Z,976.94
2018-11-22T10:32:19.713Z,976.88
2018-11-22T10:33:19.639Z,976.88
2018-11-22T10:34:19.629Z,976.93
2018-11-22T10:35:19.708Z,976.85
2018-11-22T10:36:19.661Z,976.86
2018-11-22T10:37:19.616Z,976.87
2018-11-22T10:38:19.639Z,976.82
2018-11-22T10:40:11.762Z,976.96
2018-11-22T10:41:11.373Z,976.97
2018-11-22T10:42:11.509Z,976.95
2018-11-22T10:43:11.399Z,977.01
2018-11-22T10:44:11.818Z,976.93
2018-11-22T10:45:11.377Z,976.92
2018-11-22T10:46:11.355Z,976.95
2018-11-22T10:47:11.343Z,976.98
2018-11-22T10:48:11.392Z,976.99
2018-11-22T10:49:11.387Z,976.95
2018-11-22T10:50:11.413Z,977.02
2018-11-22T10:51:11.340Z,977.00
2018-11-22T10:52:11.345Z,977.02
2018-11-22T10:53:11.351Z,977.01
2018-11-22T10:54:11.344Z,976.88
2018-11-22T10:55:11.312Z,976.86
2018-11-22T10:56:11.343Z,976.94
2018-11-22T10:57:11.305Z,976.99
2018-11-22T10:58:11.296Z,977.00
2018-11-22T10:59:11.301Z,977.02
2018-11-22T11:00:11.435Z,976.97
2018-11-22T11:01:11.318Z,976.98
2018-11-22T11:02:11.294Z,976.99
2018-11-22T11:03:11.281Z,977.04
2018-11-22T11:04:11.277Z,977.06
2018-11-22T11:05:11.309Z,977.00
2018-11-22T11:06:11.274Z,976.97
2018-11-22T11:07:11.264Z,976.94
2018-11-22T11:08:11.290Z,976.95
2018-11-22T11:09:11.252Z,977.00
2018-11-22T11:10:11.249Z,976.99
2018-11-22T11:11:11.279Z,976.96
2018-11-22T11:12:11.248Z,976.90
2018-11-22T11:13:11.242Z,976.97
2018-11-22T11:14:11.234Z,976.98
2018-11-22T11:15:11.232Z,977.01
2018-11-22T11:16:11.256Z,977.03
2018-11-22T11:17:11.229Z,977.03
2018-11-22T11:18:11.221Z,977.06
2018-11-22T11:19:11.218Z,977.13
2018-11-22T11:20:11.211Z,977.11
2018-11-22T11:21:11.238Z,977.08
2018-11-22T11:22:11.207Z,977.09
2018-11-22T11:23:11.204Z,977.12
2018-11-22T11:24:11.204Z,977.12
2018-11-22T11:25:11.193Z,977.06
2018-11-22T11:26:11.216Z,977.04
2018-11-22T11:27:11.179Z,977.08
2018-11-22T11:28:11.184Z,977.01
2018-11-22T11:29:12.801Z,976.98
2018-11-22T11:30:11.171Z,976.93
2018-11-22T11:31:11.202Z,976.83
2018-11-22T11:32:11.171Z,976.79
2018-11-22T11:33:11.159Z,976.77
2018-11-22T11:34:11.155Z,976.61
2018-11-22T11:35:11.152Z,976.64
2018-11-22T11:36:14.100Z,976.59
2018-11-22T11:37:11.143Z,976.54
2018-11-22T11:38:11.135Z,976.52
2018-11-22T11:39:11.131Z,976.54
2018-11-22T11:40:11.315Z,976.57
2018-11-22T11:41:11.154Z,976.57
2018-11-22T11:42:11.121Z,976.56
2018-11-22T11:43:11.127Z,976.52
2018-11-22T11:44:11.113Z,976.54
2018-11-22T11:45:11.114Z,976.53
2018-11-22T11:46:11.134Z,976.55
2018-11-22T11:47:11.106Z,976.55
2018-11-22T11:48:11.104Z,976.49
2018-11-22T11:49:11.122Z,976.53
2018-11-22T11:50:11.082Z,976.50
2018-11-22T11:51:11.115Z,976.50
2018-11-22T11:52:11.083Z,976.52
2018-11-22T11:53:11.074Z,976.49
2018-11-22T11:54:11.073Z,976.45
2018-11-22T11:55:11.094Z,976.49
2018-11-22T11:56:11.057Z,976.45
2018-11-22T11:57:11.054Z,976.48
2018-11-22T11:58:11.046Z,976.43
2018-11-22T11:59:11.079Z,976.46
2018-11-22T12:00:11.042Z,976.42
2018-11-22T12:01:11.060Z,976.41
2018-11-22T12:02:15.224Z,976.34
2018-11-22T12:03:11.029Z,976.31
2018-11-22T12:04:11.026Z,976.32
2018-11-22T12:05:11.018Z,976.29
2018-11-22T12:06:11.033Z,976.31
2018-11-22T12:07:11.001Z,976.29
2018-11-22T12:08:10.998Z,976.25
2018-11-22T12:09:10.997Z,976.31
2018-11-22T12:10:10.989Z,976.29
2018-11-22T12:11:11.014Z,976.22
2018-11-22T12:12:10.980Z,976.22
2018-11-22T12:13:10.977Z,976.27
2018-11-22T12:14:10.976Z,976.28
2018-11-22T12:15:10.971Z,976.30
2018-11-22T12:16:10.989Z,976.32
2018-11-22T12:17:10.963Z,976.32
2018-11-22T12:18:10.952Z,976.36
2018-11-22T12:19:10.949Z,976.40
2018-11-22T12:20:10.967Z,976.39
2018-11-22T12:21:10.933Z,976.37
2018-11-22T12:22:10.928Z,976.36
2018-11-22T12:23:10.926Z,976.36
2018-11-22T12:24:10.952Z,976.40
2018-11-22T12:25:10.916Z,976.39
2018-11-22T12:26:10.941Z,976.33
2018-11-22T12:27:10.904Z,976.40
2018-11-22T12:28:10.904Z,976.34
2018-11-22T12:29:10.897Z,976.36